Time;durP1;ratioP1;P1;durP2;ratioP2;P2;SDS_P1;SDS_P2;PMS_P1;PMS_P2;Temp;Humidity;BMP_temperature;BMP_pressure;BME280_temperature;BME280_humidity;BME280_pressure;Samples;Min_cycle;Max_cycle;Signal;HPM_P1;HPM_P2
2022/08/31 00:05:06;;;;;;;4.32;1.23;;;;;;;12.18;91.43;101647.72;4968841;28;20093;-83
2022/08/31 00:07:33;;;;;;;2.70;1.13;;;;;;;12.12;91.89;101643.78;4994149;28;20053;-85
2022/08/31 00:10:00;;;;;;;2.55;1.00;;;;;;;12.06;92.56;101641.56;5007476;28;20040;-82
2022/08/31 00:12:26;;;;;;;3.17;1.50;;;;;;;11.99;93.68;101635.94;5002373;28;20030;-83
2022/08/31 00:14:51;;;;;;;3.38;1.55;;;;;;;11.93;93.48;101637.25;4998824;28;20039;-82
2022/08/31 00:17:17;;;;;;;2.28;1.42;;;;;;;11.91;94.21;101641.88;5003375;28;20026;-81
2022/08/31 00:19:43;;;;;;;4.60;1.13;;;;;;;11.84;94.86;101635.34;4977905;28;20058;-83
2022/08/31 00:22:09;;;;;;;3.03;0.95;;;;;;;11.78;95.98;101636.69;4987226;28;20444;-84
2022/08/31 00:24:35;;;;;;;6.22;1.55;;;;;;;11.81;95.40;101635.59;4980365;28;20038;-82
2022/08/31 00:27:00;;;;;;;4.88;1.50;;;;;;;11.80;95.86;101640.06;5003296;28;20507;-81
2022/08/31 00:29:26;;;;;;;2.38;1.35;;;;;;;11.79;95.62;101646.31;4983013;28;20034;-81
2022/08/31 00:31:52;;;;;;;2.58;1.25;;;;;;;11.75;95.89;101644.91;5005884;28;20496;-82
2022/08/31 00:34:18;;;;;;;3.55;1.10;;;;;;;11.75;95.89;101645.72;4984727;28;20038;-82
2022/08/31 00:36:46;;;;;;;3.42;1.25;;;;;;;11.70;96.61;101633.81;4991853;28;20038;-82
2022/08/31 00:39:12;;;;;;;2.38;1.20;;;;;;;11.72;96.16;101642.50;4993701;28;20030;-82
2022/08/31 00:41:38;;;;;;;5.65;1.40;;;;;;;11.73;96.00;101642.38;4979853;28;20505;-82
2022/08/31 00:44:08;;;;;;;2.30;1.13;;;;;;;11.75;95.83;101645.72;5016255;28;20094;-82
2022/08/31 00:46:37;;;;;;;3.70;1.50;;;;;;;11.75;95.43;101640.41;4977074;28;20718;-82
2022/08/31 00:49:19;;;;;;;4.22;1.50;;;;;;;11.75;96.09;101643.06;4965439;28;20450;-81
2022/08/31 00:52:11;;;;;;;6.05;1.65;;;;;;;11.78;95.45;101639.34;4998362;28;20043;-80
2022/08/31 00:54:45;;;;;;;3.55;1.52;;;;;;;11.79;95.26;101646.31;5006429;28;20037;-82
2022/08/31 00:57:11;;;;;;;3.42;1.52;;;;;;;11.74;95.83;101646.69;5010903;28;20038;-81
2022/08/31 00:59:39;;;;;;;2.63;1.60;;;;;;;11.70;96.06;101645.25;5020461;28;20060;-82
2022/08/31 01:02:06;;;;;;;3.53;1.50;;;;;;;11.64;95.93;101635.16;4972562;28;20034;-82
2022/08/31 01:04:33;;;;;;;4.90;1.70;;;;;;;11.59;96.96;101643.47;4970093;28;20505;-83
2022/08/31 01:07:01;;;;;;;2.88;1.40;;;;;;;11.51;97.52;101646.72;4989826;28;20072;-81
2022/08/31 01:09:31;;;;;;;4.20;1.38;;;;;;;11.46;97.73;101643.59;4979781;28;20030;-83
2022/08/31 01:11:57;;;;;;;2.92;1.33;;;;;;;11.43;98.15;101643.84;4995417;28;20042;-83
2022/08/31 01:14:23;;;;;;;9.55;1.75;;;;;;;11.40;98.02;101641.41;4953103;28;20092;-81
2022/08/31 01:16:52;;;;;;;4.90;1.50;;;;;;;11.40;97.95;101647.53;4980714;28;20039;-81
2022/08/31 01:19:31;;;;;;;2.15;1.40;;;;;;;11.38;98.43;101645.97;4947137;28;20030;-83
2022/08/31 01:22:03;;;;;;;3.85;1.50;;;;;;;11.33;98.60;101645.50;4996573;28;20045;-83
2022/08/31 01:24:32;;;;;;;2.47;1.50;;;;;;;11.27;99.38;101642.38;4995418;28;20034;-84
2022/08/31 01:27:03;;;;;;;2.38;1.60;;;;;;;11.22;99.93;101644.53;4970957;28;20378;-84
2022/08/31 01:29:31;;;;;;;5.10;2.33;;;;;;;11.16;100.00;101639.72;4961393;28;20038;-82
2022/08/31 01:31:57;;;;;;;4.10;1.90;;;;;;;11.15;100.00;101636.22;5018611;28;20062;-83
2022/08/31 01:34:23;;;;;;;5.85;1.98;;;;;;;11.17;100.00;101644.03;4985264;28;20080;-83
2022/08/31 01:36:50;;;;;;;2.90;1.98;;;;;;;11.21;100.00;101640.19;5002421;28;20113;-83
2022/08/31 01:39:18;;;;;;;5.53;1.83;;;;;;;11.24;100.00;101642.63;4990090;28;20432;-83
2022/08/31 01:41:44;;;;;;;4.55;1.95;;;;;;;11.25;99.34;101640.78;5001402;28;20065;-82
2022/08/31 01:44:12;;;;;;;8.30;1.67;;;;;;;11.26;99.40;101648.63;4987080;28;20070;-81
2022/08/31 01:46:38;;;;;;;11.82;2.10;;;;;;;11.24;99.79;101639.97;4986149;28;20062;-83
2022/08/31 01:49:04;;;;;;;6.55;2.10;;;;;;;11.22;100.00;101639.25;4998042;28;20089;-82
2022/08/31 01:51:30;;;;;;;8.10;2.20;;;;;;;11.20;100.00;101642.94;4964312;28;20034;-81
2022/08/31 01:53:56;;;;;;;5.68;2.35;;;;;;;11.20;100.00;101643.81;5013853;28;20401;-81
2022/08/31 01:56:29;;;;;;;4.63;1.95;;;;;;;11.22;99.70;101643.69;5009533;28;20035;-82
2022/08/31 01:58:57;;;;;;;4.15;2.08;;;;;;;11.22;99.29;101636.59;5010137;28;20077;-83
2022/08/31 02:01:43;;;;;;;4.15;2.20;;;;;;;11.21;99.92;101634.88;4998081;28;20038;-82
2022/08/31 02:04:11;;;;;;;5.40;1.98;;;;;;;11.16;100.00;101626.50;4998845;28;20084;-83
2022/08/31 02:06:39;;;;;;;3.55;1.85;;;;;;;11.11;100.00;101631.28;5007701;28;20065;-82
2022/08/31 02:09:05;;;;;;;4.47;2.00;;;;;;;11.09;100.00;101631.41;4992110;28;20091;-83
2022/08/31 02:11:32;;;;;;;4.10;1.90;;;;;;;11.06;100.00;101625.50;4952391;28;20493;-81
2022/08/31 02:13:57;;;;;;;7.45;2.20;;;;;;;11.02;100.00;101617.81;4994320;28;20113;-81
2022/08/31 02:16:23;;;;;;;7.32;2.35;;;;;;;11.04;100.00;101621.19;4979879;28;20497;-81
2022/08/31 02:18:49;;;;;;;3.78;2.10;;;;;;;11.04;100.00;101615.03;5004317;28;20061;-81
2022/08/31 02:21:15;;;;;;;4.90;2.40;;;;;;;11.06;100.00;101621.06;4994811;28;20030;-82
2022/08/31 02:23:41;;;;;;;4.40;2.25;;;;;;;11.08;100.00;101624.44;5010470;28;20026;-81
2022/08/31 02:26:08;;;;;;;3.70;1.83;;;;;;;11.09;100.00;101617.31;4989783;28;20038;-83
2022/08/31 02:28:34;;;;;;;3.72;2.10;;;;;;;11.08;100.00;101618.28;5008089;28;20033;-81
2022/08/31 02:31:00;;;;;;;2.63;1.90;;;;;;;11.14;100.00;101620.47;5015723;28;20660;-82
2022/08/31 02:33:27;;;;;;;4.38;2.25;;;;;;;11.21;99.94;101620.84;4992031;28;20060;-81
2022/08/31 02:35:53;;;;;;;2.25;2.05;;;;;;;11.26;99.46;101616.84;5011868;28;20177;-82
2022/08/31 02:38:19;;;;;;;3.70;1.95;;;;;;;11.29;99.23;101615.78;5010033;28;20117;-82
2022/08/31 02:40:45;;;;;;;2.10;1.90;;;;;;;11.33;98.82;101619.88;4990697;28;20046;-82
2022/08/31 02:43:11;;;;;;;2.97;1.88;;;;;;;11.38;98.23;101620.38;4979696;28;20034;-83
2022/08/31 02:45:37;;;;;;;4.18;2.05;;;;;;;11.40;97.44;101621.06;4998799;28;20380;-82
2022/08/31 02:48:10;;;;;;;5.18;1.90;;;;;;;11.42;97.48;101623.59;4972655;28;20788;-81
2022/08/31 02:50:44;;;;;;;3.90;2.13;;;;;;;11.43;97.58;101619.16;5009364;28;20042;-83
2022/08/31 02:53:11;;;;;;;3.35;1.83;;;;;;;11.42;97.30;101623.59;4975571;28;20034;-82
2022/08/31 02:55:37;;;;;;;5.47;1.90;;;;;;;11.45;97.18;101620.69;5000240;28;20070;-81
2022/08/31 02:58:04;;;;;;;4.07;2.00;;;;;;;11.44;96.75;101621.69;4985432;28;20093;-81
2022/08/31 03:00:31;;;;;;;3.17;1.77;;;;;;;11.45;96.73;101619.88;4973521;28;20033;-82
2022/08/31 03:02:56;;;;;;;3.85;2.15;;;;;;;11.45;96.70;101620.69;5005757;28;20062;-81
2022/08/31 03:05:23;;;;;;;4.57;1.98;;;;;;;11.48;96.52;101614.34;4978354;28;20065;-82
2022/08/31 03:07:49;;;;;;;3.92;1.70;;;;;;;11.52;95.81;101621.91;4983735;28;20046;-81
2022/08/31 03:10:18;;;;;;;3.00;2.13;;;;;;;11.56;95.48;101622.53;5000245;28;20096;-81
2022/08/31 03:12:44;;;;;;;3.28;2.45;;;;;;;11.57;95.63;101626.00;4959854;28;20036;-82
2022/08/31 03:15:10;;;;;;;3.80;2.00;;;;;;;11.57;95.19;101628.66;4988594;28;20026;-82
2022/08/31 03:17:36;;;;;;;2.92;1.88;;;;;;;11.48;95.61;101623.09;5002440;28;20058;-83
2022/08/31 03:20:05;;;;;;;5.88;2.17;;;;;;;11.37;96.02;101626.59;5009186;28;20037;-81
2022/08/31 03:22:33;;;;;;;3.75;2.00;;;;;;;11.30;96.98;101622.75;4981183;28;20029;-82
2022/08/31 03:24:59;;;;;;;5.30;2.05;;;;;;;11.23;98.26;101618.88;4912590;28;20634;-83
2022/08/31 03:27:28;;;;;;;5.07;2.25;;;;;;;11.18;99.00;101629.84;5014411;28;20034;-81
2022/08/31 03:29:54;;;;;;;3.72;1.98;;;;;;;11.14;99.88;101631.91;4984491;28;20037;-82
2022/08/31 03:32:29;;;;;;;5.35;2.10;;;;;;;11.12;99.57;101631.16;4969469;28;20042;-82
2022/08/31 03:34:58;;;;;;;3.60;1.90;;;;;;;11.20;99.17;101627.94;4985000;28;20064;-82
2022/08/31 03:37:24;;;;;;;4.57;2.42;;;;;;;11.25;98.73;101624.91;4960009;28;20042;-82
2022/08/31 03:39:53;;;;;;;3.47;2.03;;;;;;;11.24;98.63;101621.44;5004249;28;20034;-82
2022/08/31 03:42:19;;;;;;;6.40;2.33;;;;;;;11.24;98.19;101617.94;4988484;28;20455;-84
2022/08/31 03:44:46;;;;;;;4.00;2.28;;;;;;;11.26;98.47;101621.34;4964054;28;20048;-82
2022/08/31 03:47:18;;;;;;;3.67;2.47;;;;;;;11.25;98.27;101624.91;4990152;28;20108;-81
2022/08/31 03:49:44;;;;;;;5.00;2.20;;;;;;;11.24;98.35;101625.88;5008226;28;20033;-82
2022/08/31 03:52:20;;;;;;;6.68;2.42;;;;;;;11.23;98.24;101625.03;4983460;28;20037;-82
2022/08/31 03:54:52;;;;;;;9.90;2.60;;;;;;;11.25;97.86;101630.22;4990010;28;20045;-81
2022/08/31 03:57:18;;;;;;;3.97;2.13;;;;;;;11.27;97.89;101626.50;4993164;28;20411;-82
2022/08/31 03:59:43;;;;;;;5.47;2.50;;;;;;;11.30;97.44;101628.06;4993496;28;20107;-81
2022/08/31 04:02:19;;;;;;;6.53;2.60;;;;;;;11.29;97.14;101629.84;4992547;28;20570;-81
2022/08/31 04:05:04;;;;;;;6.93;2.38;;;;;;;11.25;97.52;101622.28;5007983;28;20175;-83
2022/08/31 04:07:59;;;;;;;4.55;2.30;;;;;;;11.24;97.32;101625.88;4968120;28;20050;-83
2022/08/31 04:10:45;;;;;;;5.78;2.97;;;;;;;11.22;97.18;101626.00;5004084;28;20033;-81
2022/08/31 04:13:29;;;;;;;6.18;2.80;;;;;;;11.22;97.29;101631.31;4971443;28;20481;-83
2022/08/31 04:16:17;;;;;;;3.45;2.40;;;;;;;11.23;96.63;101632.97;4997134;28;20034;-81
2022/08/31 04:19:02;;;;;;;5.22;2.70;;;;;;;11.19;96.91;101635.97;5007680;28;20022;-83
2022/08/31 04:21:32;;;;;;;3.47;2.47;;;;;;;11.12;97.40;101625.88;4988478;28;20641;-84
2022/08/31 04:24:00;;;;;;;7.05;2.90;;;;;;;11.02;99.10;101628.38;5009177;28;20046;-84
2022/08/31 04:26:34;;;;;;;6.15;2.80;;;;;;;10.98;99.24;101620.81;4989334;28;20534;-82
2022/08/31 04:29:01;;;;;;;5.25;2.95;;;;;;;10.96;100.00;101625.38;4991211;28;20801;-83
2022/08/31 04:31:27;;;;;;;8.93;2.90;;;;;;;10.91;100.00;101623.91;5001871;28;20107;-83
2022/08/31 04:33:56;;;;;;;3.70;2.88;;;;;;;10.95;100.00;101618.38;5004786;28;20033;-82
2022/08/31 04:36:24;;;;;;;5.80;3.28;;;;;;;11.00;99.80;101626.81;5023394;28;20045;-81
2022/08/31 04:38:56;;;;;;;10.55;3.97;;;;;;;11.04;99.55;101622.97;5011671;28;20042;-81
2022/08/31 04:41:25;;;;;;;7.72;4.55;;;;;;;11.09;99.45;101622.63;4999299;28;20041;-81
2022/08/31 04:43:54;;;;;;;9.93;4.90;;;;;;;11.13;98.70;101624.09;4975152;28;20042;-82
2022/08/31 04:46:20;;;;;;;12.80;5.93;;;;;;;11.12;98.69;101615.28;4990567;28;20025;-81
2022/08/31 04:48:46;;;;;;;16.60;6.90;;;;;;;11.08;99.26;101621.78;5007521;28;20037;-81
2022/08/31 04:51:17;;;;;;;16.15;7.15;;;;;;;11.05;99.70;101622.03;5011583;28;20439;-83
2022/08/31 04:53:44;;;;;;;27.40;7.75;;;;;;;11.00;100.00;101619.75;4988205;28;20042;-80
2022/08/31 04:56:14;;;;;;;64.60;6.70;;;;;;;10.94;100.00;101625.47;4979325;28;20038;-82
2022/08/31 04:58:47;;;;;;;43.85;7.65;;;;;;;10.88;100.00;101623.31;5016616;28;20538;-82
2022/08/31 05:01:16;;;;;;;64.47;8.00;;;;;;;10.90;100.00;101622.25;5007382;28;20033;-81
2022/08/31 05:04:02;;;;;;;120.10;9.60;;;;;;;10.92;100.00;101630.06;5010035;28;20484;-81
2022/08/31 05:06:30;;;;;;;76.43;9.02;;;;;;;10.98;100.00;101628.75;5025869;28;20065;-81
2022/08/31 05:09:08;;;;;;;95.22;8.85;;;;;;;11.04;100.00;101633.56;4994280;28;20520;-81
2022/08/31 05:11:38;;;;;;;158.63;10.63;;;;;;;11.08;100.00;101639.47;4981761;28;20038;-81
2022/08/31 05:14:06;;;;;;;86.20;8.15;;;;;;;11.13;100.00;101638.13;4977210;28;20030;-82
2022/08/31 05:16:36;;;;;;;126.68;8.48;;;;;;;11.13;100.00;101627.56;4970066;28;20507;-82
2022/08/31 05:19:02;;;;;;;181.40;10.05;;;;;;;11.05;100.00;101632.63;4989909;28;20351;-84
2022/08/31 05:21:31;;;;;;;60.63;7.22;;;;;;;11.00;100.00;101625.03;4988541;28;20083;-83
2022/08/31 05:23:59;;;;;;;74.38;8.13;;;;;;;10.92;100.00;101630.88;4999736;28;20218;-82
2022/08/31 05:26:29;;;;;;;51.88;7.78;;;;;;;10.91;100.00;101634.50;4979808;28;20038;-82
2022/08/31 05:28:56;;;;;;;47.05;6.40;;;;;;;10.92;100.00;101638.81;4973607;28;20481;-82
2022/08/31 05:31:23;;;;;;;43.78;7.13;;;;;;;10.88;100.00;101644.47;4981824;28;20385;-81
2022/08/31 05:33:51;;;;;;;23.10;6.35;;;;;;;10.86;100.00;101649.03;4994281;28;20045;-82
2022/08/31 05:36:21;;;;;;;38.78;5.65;;;;;;;10.83;100.00;101657.22;4991544;28;20030;-84
2022/08/31 05:38:46;;;;;;;77.45;6.45;;;;;;;10.81;100.00;101652.03;4970027;28;20041;-82
2022/08/31 05:41:13;;;;;;;83.18;6.32;;;;;;;10.78;100.00;101654.91;4978560;28;20499;-81
2022/08/31 05:43:39;;;;;;;64.13;5.70;;;;;;;10.77;100.00;101650.56;4990416;28;20070;-83
2022/08/31 05:46:11;;;;;;;74.43;7.10;;;;;;;10.77;100.00;101650.56;4981141;28;20388;-83
2022/08/31 05:48:38;;;;;;;122.85;7.47;;;;;;;10.74;100.00;101650.81;5005829;28;20038;-81
2022/08/31 05:51:11;;;;;;;63.92;6.80;;;;;;;10.75;100.00;101653.31;4959989;28;20034;-82
2022/08/31 05:53:37;;;;;;;135.95;8.30;;;;;;;10.75;100.00;101652.50;4987368;28;20026;-82
2022/08/31 05:56:08;;;;;;;97.05;5.88;;;;;;;10.75;100.00;101648.03;4995156;28;20044;-80
2022/08/31 05:58:35;;;;;;;54.75;6.07;;;;;;;10.82;100.00;101651.06;5006088;28;20026;-81
2022/08/31 06:01:03;;;;;;;47.25;4.30;;;;;;;10.82;100.00;101652.88;4982731;28;20095;-83
2022/08/31 06:03:55;;;;;;;125.78;7.35;;;;;;;10.75;100.00;101645.41;5012264;28;20040;-81
2022/08/31 06:06:22;;;;;;;191.20;8.00;;;;;;;10.77;100.00;101654.06;4978011;28;20053;-81
2022/08/31 06:08:51;;;;;;;99.30;7.53;;;;;;;10.84;100.00;101659.75;4985824;28;20061;-81
2022/08/31 06:11:20;;;;;;;137.90;8.10;;;;;;;10.86;100.00;101662.28;4998617;28;20038;-81
2022/08/31 06:13:50;;;;;;;74.72;7.90;;;;;;;10.95;100.00;101658.06;4985610;28;20034;-81
2022/08/31 06:16:16;;;;;;;147.73;9.25;;;;;;;10.94;100.00;101667.81;4992303;28;20069;-81
2022/08/31 06:18:49;;;;;;;72.22;8.55;;;;;;;10.97;100.00;101669.38;4996512;28;20181;-80
2022/08/31 06:21:26;;;;;;;129.88;10.13;;;;;;;10.99;100.00;101673.59;4963226;28;20038;-81
2022/08/31 06:23:56;;;;;;;67.90;7.82;;;;;;;10.96;100.00;101671.19;4986967;28;20045;-79
2022/08/31 06:26:23;;;;;;;93.05;7.70;;;;;;;10.89;100.00;101669.97;4982131;28;20042;-80
2022/08/31 06:28:53;;;;;;;93.18;8.48;;;;;;;10.87;100.00;101670.09;4988044;28;20037;-81
2022/08/31 06:31:23;;;;;;;138.77;8.50;;;;;;;10.88;100.00;101679.69;4994919;28;20065;-81
2022/08/31 06:33:51;;;;;;;60.15;6.32;;;;;;;10.90;100.00;101684.88;5009885;28;20053;-82
2022/08/31 06:36:34;;;;;;;79.55;8.25;;;;;;;10.87;100.00;101685.09;4992093;28;20026;-79
2022/08/31 06:39:16;;;;;;;108.85;8.35;;;;;;;10.89;100.00;101680.56;4974103;28;20034;-81
2022/08/31 06:42:02;;;;;;;66.97;9.07;;;;;;;10.94;100.00;101677.56;4979589;28;20049;-81
2022/08/31 06:44:48;;;;;;;57.35;9.23;;;;;;;11.03;100.00;101682.16;5006771;28;20038;-81
2022/08/31 06:47:18;;;;;;;27.23;6.40;;;;;;;10.99;100.00;101676.25;4992522;28;20037;-84
2022/08/31 06:49:44;;;;;;;69.00;9.35;;;;;;;10.89;100.00;101676.09;5006068;28;20121;-81
2022/08/31 06:52:11;;;;;;;94.15;10.65;;;;;;;10.90;100.00;101677.78;5003079;28;20057;-82
2022/08/31 06:54:40;;;;;;;22.13;5.82;;;;;;;10.97;100.00;101675.53;4976886;28;20042;-84
2022/08/31 06:57:38;;;;;;;69.97;8.02;;;;;;;10.92;100.00;101677.69;4984866;28;20046;-82
2022/08/31 07:00:26;;;;;;;49.17;7.45;;;;;;;10.96;100.00;101683.59;4991986;28;20088;-82
2022/08/31 07:03:21;;;;;;;78.28;7.32;;;;;;;10.89;100.00;101678.72;4983571;28;20037;-81
2022/08/31 07:05:53;;;;;;;63.15;8.05;;;;;;;10.92;100.00;101681.13;4977087;28;20034;-82
2022/08/31 07:08:20;;;;;;;37.38;8.10;;;;;;;10.97;100.00;101683.47;4970122;28;20046;-81
2022/08/31 07:10:47;;;;;;;77.10;7.53;;;;;;;11.01;100.00;101689.34;4997244;28;20022;-80
2022/08/31 07:13:13;;;;;;;75.20;7.57;;;;;;;11.03;100.00;101683.00;4999230;28;20049;-81
2022/08/31 07:15:39;;;;;;;133.40;9.48;;;;;;;11.07;100.00;101690.69;4984258;28;20137;-81
2022/08/31 07:18:04;;;;;;;137.57;9.52;;;;;;;11.16;100.00;101690.00;5000725;28;20038;-82
2022/08/31 07:20:30;;;;;;;106.20;10.00;;;;;;;11.26;100.00;101685.66;4974517;28;20515;-81
2022/08/31 07:22:56;;;;;;;60.53;8.48;;;;;;;11.43;100.00;101690.63;4999269;28;20105;-81
2022/08/31 07:25:30;;;;;;;95.50;10.35;;;;;;;11.43;100.00;101702.06;5003582;28;20108;-81
2022/08/31 07:27:58;;;;;;;104.30;10.35;;;;;;;11.50;100.00;101697.13;4987157;28;20110;-81
2022/08/31 07:30:25;;;;;;;29.35;8.02;;;;;;;11.54;100.00;101702.09;4973777;28;20117;-81
2022/08/31 07:32:50;;;;;;;37.28;8.70;;;;;;;11.59;100.00;101696.44;5015005;28;20109;-81
2022/08/31 07:35:17;;;;;;;20.80;6.35;;;;;;;11.58;100.00;101694.72;4973861;28;20372;-82
2022/08/31 07:43:35;;;;;;;41.80;10.32;;;;;;;11.70;100.00;101697.38;4980762;28;20086;-81
2022/08/31 07:46:01;;;;;;;58.45;9.82;;;;;;;11.67;100.00;101703.78;5007722;28;20042;-81
2022/08/31 07:48:27;;;;;;;39.95;9.20;;;;;;;11.68;100.00;101707.25;5002198;28;20700;-81
2022/08/31 07:51:16;;;;;;;29.75;9.70;;;;;;;11.63;100.00;101703.16;4970009;28;20045;-81
2022/08/31 07:54:09;;;;;;;44.45;10.25;;;;;;;11.70;100.00;101700.88;4990848;28;20065;-80
2022/08/31 07:57:03;;;;;;;16.42;8.63;;;;;;;11.79;100.00;101705.44;4989352;28;20108;-81
2022/08/31 07:59:33;;;;;;;40.40;10.00;;;;;;;11.83;100.00;101703.41;5016843;28;20030;-81
2022/08/31 08:02:03;;;;;;;34.80;10.60;;;;;;;11.91;100.00;101710.75;5007658;28;20460;-79
2022/08/31 08:04:30;;;;;;;16.45;10.68;;;;;;;11.93;100.00;101716.75;4977427;28;20038;-82
2022/08/31 08:07:15;;;;;;;21.80;10.27;;;;;;;11.99;100.00;101707.47;4977539;28;20030;-80
2022/08/31 08:10:04;;;;;;;15.55;11.02;;;;;;;12.04;100.00;101713.25;4997753;28;20049;-81
2022/08/31 08:12:49;;;;;;;18.83;11.57;;;;;;;12.22;100.00;101718.06;5000529;28;20070;-81
2022/08/31 08:15:34;;;;;;;13.75;10.32;;;;;;;12.30;100.00;101713.00;4976119;28;20568;-82
2022/08/31 08:18:12;;;;;;;22.92;11.43;;;;;;;12.41;100.00;101712.13;5003953;28;20068;-81
2022/08/31 08:20:44;;;;;;;14.93;10.15;;;;;;;12.52;100.00;101713.88;5016009;28;20123;-81
2022/08/31 08:23:13;;;;;;;15.85;9.32;;;;;;;12.48;100.00;101710.66;4990347;28;20034;-81
2022/08/31 08:26:00;;;;;;;11.40;8.55;;;;;;;12.46;100.00;101704.63;4982496;28;20116;-82
2022/08/31 08:28:49;;;;;;;12.23;8.10;;;;;;;12.52;100.00;101697.97;4983346;28;20043;-82
2022/08/31 08:31:17;;;;;;;11.60;7.97;;;;;;;12.60;100.00;101705.28;4995673;28;24834;-81
2022/08/31 08:33:44;;;;;;;14.18;9.10;;;;;;;12.70;100.00;101708.03;4969673;28;20034;-83
2022/08/31 08:36:11;;;;;;;11.77;8.50;;;;;;;12.82;100.00;101714.16;4982210;28;20030;-81
2022/08/31 08:38:42;;;;;;;15.70;8.75;;;;;;;13.01;100.00;101708.16;4984365;28;20035;-81
2022/08/31 08:41:18;;;;;;;12.52;7.38;;;;;;;13.19;100.00;101699.56;4986604;28;20117;-81
2022/08/31 08:43:50;;;;;;;20.40;7.38;;;;;;;13.38;100.00;101702.34;4977249;28;20116;-82
2022/08/31 08:46:20;;;;;;;10.88;5.18;;;;;;;13.55;100.00;101694.78;4970823;28;20814;-80
2022/08/31 08:48:47;;;;;;;7.85;4.75;;;;;;;13.67;100.00;101695.53;4968990;28;20049;-81
2022/08/31 08:51:17;;;;;;;8.75;4.80;;;;;;;13.87;100.00;101703.56;4985723;28;20042;-79
2022/08/31 08:54:03;;;;;;;10.18;4.82;;;;;;;14.01;100.00;101691.72;4965035;28;20070;-82
2022/08/31 08:56:34;;;;;;;11.77;4.75;;;;;;;14.21;100.00;101689.94;4955292;28;20495;-83
2022/08/31 08:59:03;;;;;;;8.55;3.92;;;;;;;14.42;100.00;101694.28;4959395;28;20497;-83
2022/08/31 09:01:36;;;;;;;7.18;2.90;;;;;;;14.58;100.00;101692.91;5000485;28;20042;-82
2022/08/31 09:04:20;;;;;;;11.32;2.80;;;;;;;14.76;100.00;101698.38;4986955;28;20034;-84
2022/08/31 09:07:22;;;;;;;9.20;3.25;;;;;;;14.91;100.00;101692.63;4988619;28;20030;-85
2022/08/31 09:10:02;;;;;;;9.15;2.38;;;;;;;14.97;100.00;101682.25;4998679;28;20029;-83
2022/08/31 09:12:43;;;;;;;4.40;1.70;;;;;;;15.10;100.00;101689.94;5012689;28;20732;-84
2022/08/31 09:15:31;;;;;;;6.40;2.20;;;;;;;15.15;99.60;101689.50;4958321;28;20398;-85
2022/08/31 09:18:20;;;;;;;5.25;2.22;;;;;;;15.31;99.85;101682.72;4988472;28;20042;-82
2022/08/31 09:21:20;;;;;;;7.40;2.08;;;;;;;15.32;96.43;101682.56;4951267;28;20041;-84
2022/08/31 09:24:00;;;;;;;5.40;1.83;;;;;;;15.32;94.75;101679.09;4982881;28;20102;-83
2022/08/31 09:26:34;;;;;;;9.85;1.88;;;;;;;15.43;95.87;101672.72;4988376;28;20488;-83
2022/08/31 09:29:12;;;;;;;4.95;1.60;;;;;;;15.52;93.41;101676.34;5019322;28;20108;-83
2022/08/31 09:31:40;;;;;;;4.20;1.25;;;;;;;15.66;91.52;101667.00;5004141;28;20068;-83
2022/08/31 09:34:27;;;;;;;4.22;1.55;;;;;;;15.72;87.44;101666.41;5005356;28;20041;-82
2022/08/31 09:37:14;;;;;;;;;;;;;;;15.62;82.64;101671.81;5005406;28;20472;-84
2022/08/31 09:39:46;;;;;;;3.70;1.20;;;;;;;15.77;85.29;101672.16;4999753;28;20001;-85
2022/08/31 09:42:29;;;;;;;3.00;0.90;;;;;;;15.88;83.14;101666.63;4996674;28;20065;-84
2022/08/31 09:45:28;;;;;;;5.63;0.70;;;;;;;15.96;82.33;101671.19;5005658;28;20551;-82
2022/08/31 09:48:00;;;;;;;6.95;1.08;;;;;;;16.17;82.01;101677.28;5001061;28;20042;-82
2022/08/31 09:50:46;;;;;;;4.85;0.90;;;;;;;16.29;80.18;101673.41;4990582;28;20054;-81
2022/08/31 09:56:19;;;;;;;1.42;0.73;;;;;;;16.54;79.00;101659.44;5012069;28;20125;-83
2022/08/31 09:58:56;;;;;;;6.18;0.77;;;;;;;16.64;76.33;101657.53;4969795;28;20085;-80
2022/08/31 10:01:30;;;;;;;2.97;0.70;;;;;;;16.69;75.09;101660.56;4992394;28;20041;-80
2022/08/31 10:04:15;;;;;;;3.72;0.73;;;;;;;16.72;73.45;101656.75;5001064;28;20760;-80
2022/08/31 10:06:48;;;;;;;2.67;0.50;;;;;;;16.79;73.16;101655.13;4968898;28;20034;-81
2022/08/31 10:09:27;;;;;;;4.07;0.68;;;;;;;16.88;72.51;101653.38;4967396;28;20472;-81
2022/08/31 10:11:58;;;;;;;1.65;0.50;;;;;;;16.96;72.46;101656.06;4982550;28;20034;-82
2022/08/31 10:14:33;;;;;;;1.33;0.47;;;;;;;17.03;70.10;101650.09;4950533;28;20048;-82
2022/08/31 10:17:03;;;;;;;;;;;;;;;17.15;68.79;101648.03;5016914;28;20033;-83
2022/08/31 10:19:51;;;;;;;5.57;1.00;;;;;;;17.44;67.71;101639.66;4998553;28;19914;-81
2022/08/31 10:22:35;;;;;;;0.80;0.35;;;;;;;17.42;64.72;101643.50;4999935;28;20033;-82
2022/08/31 10:25:11;;;;;;;3.33;0.50;;;;;;;17.33;67.38;101637.25;5002726;28;20041;-82
2022/08/31 10:27:47;;;;;;;;;;;;;;;17.29;65.72;101642.13;5000599;28;20484;-81
2022/08/31 10:30:39;;;;;;;1.88;0.47;;;;;;;17.51;62.66;101644.38;5019368;28;19921;-83
2022/08/31 10:33:23;;;;;;;0.75;0.50;;;;;;;17.66;65.69;101640.06;4992981;28;20047;-80
2022/08/31 10:35:53;;;;;;;1.48;0.40;;;;;;;17.71;65.80;101643.09;4990496;28;20460;-82
2022/08/31 10:38:39;;;;;;;1.67;0.75;;;;;;;17.75;63.60;101634.75;4982625;28;20038;-80
2022/08/31 10:41:20;;;;;;;1.20;0.50;;;;;;;17.87;62.80;101633.44;5005085;28;20022;-83
2022/08/31 10:43:58;;;;;;;1.02;0.50;;;;;;;17.76;62.74;101631.09;4985380;28;20057;-81
2022/08/31 10:46:25;;;;;;;2.47;0.60;;;;;;;17.52;63.42;101632.69;4976328;28;20045;-82
2022/08/31 10:48:53;;;;;;;1.92;1.02;;;;;;;17.51;63.92;101628.31;4970992;28;20073;-79
2022/08/31 10:51:49;;;;;;;1.35;0.50;;;;;;;17.55;61.81;101627.03;4992985;28;20049;-81
2022/08/31 10:54:31;;;;;;;;;;;;;;;17.34;61.98;101622.94;5006630;28;20072;-81
2022/08/31 10:57:18;;;;;;;1.90;0.63;;;;;;;17.44;63.55;101625.47;4988505;28;20059;-80
2022/08/31 11:00:02;;;;;;;1.85;0.70;;;;;;;17.64;63.20;101618.03;4994885;28;20033;-80
2022/08/31 11:02:56;;;;;;;3.83;1.00;;;;;;;17.97;60.14;101610.06;4952805;28;20195;-86
2022/08/31 11:05:32;;;;;;;0.85;0.60;;;;;;;18.21;58.56;101599.59;4987179;28;20041;-80
2022/08/31 11:08:19;;;;;;;5.00;0.80;;;;;;;18.41;56.89;101610.78;4979854;28;20042;-80
2022/08/31 11:10:46;;;;;;;2.10;0.60;;;;;;;18.52;58.79;101606.94;5014115;28;20173;-80
2022/08/31 11:13:47;;;;;;;1.05;0.50;;;;;;;18.69;56.89;101594.38;4988327;28;20051;-81
2022/08/31 11:16:30;;;;;;;1.10;0.63;;;;;;;18.93;57.52;101595.31;5007070;28;20089;-80
2022/08/31 11:19:08;;;;;;;1.38;0.57;;;;;;;19.03;55.11;101599.66;4984216;28;20038;-81
2022/08/31 11:21:41;;;;;;;3.75;0.70;;;;;;;18.89;53.92;101595.84;4990055;28;20141;-81
2022/08/31 11:24:38;;;;;;;1.75;0.60;;;;;;;18.89;51.15;101588.63;4972833;28;20496;-80
2022/08/31 11:27:22;;;;;;;3.25;1.25;;;;;;;18.87;53.45;101592.50;4973487;28;20095;-81
2022/08/31 11:30:06;;;;;;;3.47;0.80;;;;;;;19.04;52.15;101586.06;5015745;28;20435;-80
2022/08/31 11:32:46;;;;;;;1.27;0.70;;;;;;;19.13;53.37;101586.91;5002347;28;20399;-80
2022/08/31 11:35:14;;;;;;;2.45;0.60;;;;;;;19.01;54.22;101582.91;5006009;28;20034;-79
2022/08/31 11:37:50;;;;;;;0.82;0.50;;;;;;;18.92;55.03;101580.25;5007244;28;20099;-80
2022/08/31 11:40:40;;;;;;;4.30;0.80;;;;;;;19.05;54.06;101568.13;5016440;28;20036;-80
2022/08/31 11:43:12;;;;;;;1.83;1.00;;;;;;;19.06;55.48;101573.31;4989402;28;20121;-80
2022/08/31 11:45:39;;;;;;;1.33;0.50;;;;;;;19.13;54.92;101573.50;4983735;28;20033;-81
2022/08/31 11:48:09;;;;;;;2.60;0.77;;;;;;;19.30;55.04;101570.75;5012447;28;20030;-81
2022/08/31 11:50:37;;;;;;;1.33;0.50;;;;;;;19.41;54.46;101565.03;4951299;28;20038;-79
2022/08/31 11:53:24;;;;;;;3.70;0.63;;;;;;;19.38;53.08;101569.88;4988861;28;20573;-80
2022/08/31 11:55:54;;;;;;;6.63;0.73;;;;;;;19.29;54.45;101572.59;4994006;28;20041;-80
2022/08/31 11:58:32;;;;;;;3.05;0.60;;;;;;;19.12;52.68;101571.00;5000391;28;20404;-81